Time;durP1;ratioP1;P1;durP2;ratioP2;P2;SDS_P1;SDS_P2;PMS_P1;PMS_P2;Temp;Humidity;BMP_temperature;BMP_pressure;BME280_temperature;BME280_humidity;BME280_pressure;Samples;Min_cycle;Max_cycle;Signal;HPM_P1;HPM_P2
2024/03/02 00:01:45;;;;;;;;;;;;;;;;;;5080178;28;20003;-57
2024/03/02 00:04:11;;;;;;;;;;;;;;;;;;5082914;28;20280;-55
2024/03/02 00:06:37;;;;;;;;;;;;;;;;;;5075640;28;20618;-57
2024/03/02 00:09:02;;;;;;;;;;;;;;;;;;5072124;28;19912;-57
2024/03/02 00:11:27;;;;;;;;;;;;;;;;;;5079120;28;20278;-56
2024/03/02 00:13:53;;;;;;;;;;;;;;;;;;5080874;28;19912;-56
2024/03/02 00:16:18;;;;;;;;;;;;;;;;;;5074437;28;19912;-56
2024/03/02 00:18:44;;;;;;;;;;;;;;;;;;5080553;28;19923;-55
2024/03/02 00:21:09;;;;;;;;;;;;;;;;;;5075049;28;19966;-56
2024/03/02 00:23:34;;;;;;;;;;;;;;;;;;5078127;28;19955;-58
2024/03/02 00:26:00;;;;;;;;;;;;;;;;;;5075919;28;19967;-56
2024/03/02 00:28:25;;;;;;;;;;;;;;;;;;5071795;28;19941;-56
2024/03/02 00:30:50;;;;;;;;;;;;;;;;;;5072918;28;20015;-56
2024/03/02 00:33:15;;;;;;;;;;;;;;;;;;5074852;28;19916;-56
2024/03/02 00:35:40;;;;;;;;;;;;;;;;;;5075556;28;20289;-56
2024/03/02 00:38:08;;;;;;;;;;;;;;;;;;5074568;28;20296;-57
2024/03/02 00:40:33;;;;;;;;;;;;;;;;;;5082722;28;19925;-56
2024/03/02 00:42:59;;;;;;;;;;;;;;;;;;5075395;28;20037;-57
2024/03/02 00:45:24;;;;;;;;;;;;;;;;;;5080691;28;19917;-56
2024/03/02 00:47:49;;;;;;;;;;;;;;;;;;5078748;28;19912;-57
2024/03/02 00:50:15;;;;;;;;;;;;;;;;;;5078726;28;19924;-56
2024/03/02 00:52:40;;;;;;;;;;;;;;;;;;5075574;28;19923;-55
2024/03/02 00:55:05;;;;;;;;;;;;;;;;;;5075385;28;20050;-57
2024/03/02 00:57:30;;;;;;;;;;;;;;;;;;5075843;28;19912;-56
2024/03/02 00:59:55;;;;;;;;;;;;;;;;;;5074843;28;19912;-56
2024/03/02 01:02:21;;;;;;;;;;;;;;;;;;5072643;28;19913;-57
2024/03/02 01:04:46;;;;;;;;;;;;;;;;;;5076044;28;19927;-58
2024/03/02 01:07:11;;;;;;;;;;;;;;;;;;5071107;28;20003;-56
2024/03/02 01:09:36;;;;;;;;;;;;;;;;;;5076752;28;19913;-57
2024/03/02 01:12:01;;;;;;;;;;;;;;;;;;5075185;28;19958;-57
2024/03/02 01:14:26;;;;;;;;;;;;;;;;;;5077736;28;19923;-56
2024/03/02 01:16:52;;;;;;;;;;;;;;;;;;5080829;28;19982;-56
2024/03/02 01:19:17;;;;;;;;;;;;;;;;;;5071193;28;19917;-56
2024/03/02 01:21:42;;;;;;;;;;;;;;;;;;5078567;28;19916;-56
2024/03/02 01:24:08;;;;;;;;;;;;;;;;;;5070428;28;19920;-57
2024/03/02 01:26:33;;;;;;;;;;;;;;;;;;5080191;28;19912;-57
2024/03/02 01:28:58;;;;;;;;;;;;;;;;;;5070873;28;19965;-56
2024/03/02 01:31:23;;;;;;;;;;;;;;;;;;5073828;28;19958;-58
2024/03/02 01:33:48;;;;;;;;;;;;;;;;;;5071005;28;19927;-56
2024/03/02 01:36:13;;;;;;;;;;;;;;;;;;5075937;28;19917;-56
2024/03/02 01:38:39;;;;;;;;;;;;;;;;;;5073200;28;19917;-56
2024/03/02 01:41:04;;;;;;;;;;;;;;;;;;5082661;28;19924;-55
2024/03/02 01:43:29;;;;;;;;;;;;;;;;;;5081213;28;19917;-56
2024/03/02 01:45:54;;;;;;;;;;;;;;;;;;5075278;28;19919;-57
2024/03/02 01:48:19;;;;;;;;;;;;;;;;;;5074423;28;20062;-58
2024/03/02 01:50:44;;;;;;;;;;;;;;;;;;5074558;28;20242;-57
2024/03/02 01:53:10;;;;;;;;;;;;;;;;;;5069662;28;19999;-56
2024/03/02 01:55:35;;;;;;;;;;;;;;;;;;5074966;28;20335;-57
2024/03/02 01:58:00;;;;;;;;;;;;;;;;;;5081196;28;19912;-57
2024/03/02 02:00:26;;;;;;;;;;;;;;;;;;5075789;28;19996;-59
2024/03/02 02:02:51;;;;;;;;;;;;;;;;;;5076231;28;20383;-55
2024/03/02 02:05:16;;;;;;;;;;;;;;;;;;5077127;28;19970;-56
2024/03/02 02:07:42;;;;;;;;;;;;;;;;;;5084553;28;19915;-56
2024/03/02 02:10:07;;;;;;;;;;;;;;;;;;5076034;28;19919;-56
2024/03/02 02:12:32;;;;;;;;;;;;;;;;;;5075630;28;19908;-56
2024/03/02 02:14:57;;;;;;;;;;;;;;;;;;5083919;28;19916;-57
2024/03/02 02:17:22;;;;;;;;;;;;;;;;;;5075179;28;19966;-56
2024/03/02 02:19:47;;;;;;;;;;;;;;;;;;5076692;28;19916;-56
2024/03/02 02:22:12;;;;;;;;;;;;;;;;;;5078523;28;20389;-56
2024/03/02 02:24:38;;;;;;;;;;;;;;;;;;5077319;28;20345;-57
2024/03/02 02:27:03;;;;;;;;;;;;;;;;;;5076424;28;20396;-56
2024/03/02 02:29:28;;;;;;;;;;;;;;;;;;5077821;28;20419;-56
2024/03/02 02:31:53;;;;;;;;;;;;;;;;;;5074737;28;20327;-55
2024/03/02 02:34:18;;;;;;;;;;;;;;;;;;5073223;28;20327;-56
2024/03/02 02:36:43;;;;;;;;;;;;;;;;;;5077314;28;19954;-56
2024/03/02 02:39:08;;;;;;;;;;;;;;;;;;5075317;28;19952;-64
2024/03/02 02:41:33;;;;;;;;;;;;;;;;;;5081265;28;19920;-63
2024/03/02 02:43:59;;;;;;;;;;;;;;;;;;5080537;28;20026;-63
2024/03/02 02:46:24;;;;;;;;;;;;;;;;;;5078629;28;19912;-63
2024/03/02 02:48:50;;;;;;;;;;;;;;;;;;5074984;28;19913;-63
2024/03/02 02:51:16;;;;;;;;;;;;;;;;;;5082285;28;20396;-63
2024/03/02 02:53:41;;;;;;;;;;;;;;;;;;5076159;28;19917;-63
2024/03/02 02:56:06;;;;;;;;;;;;;;;;;;5074988;28;19912;-63
2024/03/02 02:58:31;;;;;;;;;;;;;;;;;;5082911;28;20392;-63
2024/03/02 03:00:57;;;;;;;;;;;;;;;;;;5076979;28;19913;-63
2024/03/02 03:03:22;;;;;;;;;;;;;;;;;;5080228;28;20011;-64
2024/03/02 03:05:47;;;;;;;;;;;;;;;;;;5079837;28;20376;-63
2024/03/02 03:08:12;;;;;;;;;;;;;;;;;;5073334;28;20253;-63
2024/03/02 03:10:37;;;;;;;;;;;;;;;;;;5081289;28;20337;-63
2024/03/02 03:13:02;;;;;;;;;;;;;;;;;;5075703;28;19958;-63
2024/03/02 03:15:27;;;;;;;;;;;;;;;;;;5080136;28;19931;-63
2024/03/02 03:17:53;;;;;;;;;;;;;;;;;;5081496;28;20376;-63
2024/03/02 03:20:18;;;;;;;;;;;;;;;;;;5073571;28;20019;-64
2024/03/02 03:22:43;;;;;;;;;;;;;;;;;;5072085;28;19920;-63
2024/03/02 03:25:08;;;;;;;;;;;;;;;;;;5072882;28;20458;-63
2024/03/02 03:27:33;;;;;;;;;;;;;;;;;;5071702;28;19916;-64
2024/03/02 03:29:58;;;;;;;;;;;;;;;;;;5073579;28;19967;-63
2024/03/02 03:32:24;;;;;;;;;;;;;;;;;;5071952;28;19912;-64
2024/03/02 03:34:49;;;;;;;;;;;;;;;;;;5072627;28;20328;-63
2024/03/02 03:37:15;;;;;;;;;;;;;;;;;;5072400;28;19970;-57
2024/03/02 03:39:40;;;;;;;;;;;;;;;;;;5074678;28;19954;-63
2024/03/02 03:42:05;;;;;;;;;;;;;;;;;;5073769;28;20027;-63
2024/03/02 03:44:30;;;;;;;;;;;;;;;;;;5082227;28;19958;-62
2024/03/02 03:46:55;;;;;;;;;;;;;;;;;;5073048;28;19913;-60
2024/03/02 03:49:21;;;;;;;;;;;;;;;;;;5075085;28;19912;-57
2024/03/02 03:51:46;;;;;;;;;;;;;;;;;;5072176;28;19938;-57
2024/03/02 03:54:11;;;;;;;;;;;;;;;;;;5073226;28;19916;-57
2024/03/02 03:56:36;;;;;;;;;;;;;;;;;;5073719;28;19916;-56
2024/03/02 03:59:02;;;;;;;;;;;;;;;;;;5080449;28;19913;-56
2024/03/02 04:01:27;;;;;;;;;;;;;;;;;;5076391;28;19999;-57
2024/03/02 04:03:52;;;;;;;;;;;;;;;;;;5077338;28;19927;-58
2024/03/02 04:06:17;;;;;;;;;;;;;;;;;;5072328;28;19918;-57
2024/03/02 04:08:43;;;;;;;;;;;;;;;;;;5074690;28;19912;-57
2024/03/02 04:11:08;;;;;;;;;;;;;;;;;;5075082;28;19927;-57
2024/03/02 04:13:33;;;;;;;;;;;;;;;;;;5088185;28;20349;-57
2024/03/02 04:15:58;;;;;;;;;;;;;;;;;;5074822;28;20377;-57
2024/03/02 04:18:23;;;;;;;;;;;;;;;;;;5074835;28;20393;-57
2024/03/02 04:20:49;;;;;;;;;;;;;;;;;;5079173;28;19913;-57
2024/03/02 04:23:14;;;;;;;;;;;;;;;;;;5072949;28;20315;-57
2024/03/02 04:25:39;;;;;;;;;;;;;;;;;;5077543;28;20330;-55
2024/03/02 04:28:04;;;;;;;;;;;;;;;;;;5080467;28;20385;-56
2024/03/02 04:30:29;;;;;;;;;;;;;;;;;;5071396;28;19915;-57
2024/03/02 04:32:54;;;;;;;;;;;;;;;;;;5074604;28;19928;-57
2024/03/02 04:35:21;;;;;;;;;;;;;;;;;;5071162;28;19913;-57
2024/03/02 04:37:46;;;;;;;;;;;;;;;;;;5077144;28;19920;-56
2024/03/02 04:40:11;;;;;;;;;;;;;;;;;;5072637;28;19925;-56
2024/03/02 04:42:36;;;;;;;;;;;;;;;;;;5071426;28;19973;-55
2024/03/02 04:45:01;;;;;;;;;;;;;;;;;;5079978;28;19942;-56
2024/03/02 04:47:26;;;;;;;;;;;;;;;;;;5076404;28;19948;-56
2024/03/02 04:49:51;;;;;;;;;;;;;;;;;;5070943;28;19921;-56
2024/03/02 04:52:17;;;;;;;;;;;;;;;;;;5070954;28;19916;-57
2024/03/02 04:57:26;;;;;;;;;;;;;;;;;;5085927;28;19958;-56
2024/03/02 04:59:51;;;;;;;;;;;;;;;;;;5072585;28;19920;-57
2024/03/02 05:02:16;;;;;;;;;;;;;;;;;;5073108;28;19916;-56
2024/03/02 05:04:41;;;;;;;;;;;;;;;;;;5072998;28;19995;-56
2024/03/02 05:07:07;;;;;;;;;;;;;;;;;;5075033;28;20361;-57
2024/03/02 05:09:32;;;;;;;;;;;;;;;;;;5078505;28;19913;-56
2024/03/02 05:14:48;;;;;;;;;;;;;;;;;;5051093;28;20380;-56
2024/03/02 05:17:13;;;;;;;;;;;;;;;;;;5072063;28;19920;-56
2024/03/02 05:19:39;;;;;;;;;;;;;;;;;;5072138;28;19923;-56
2024/03/02 05:22:04;;;;;;;;;;;;;;;;;;5070842;28;19919;-56
2024/03/02 05:24:29;;;;;;;;;;;;;;;;;;5070666;28;19955;-57
2024/03/02 05:26:54;;;;;;;;;;;;;;;;;;5074574;28;20335;-56
2024/03/02 05:29:20;;;;;;;;;;;;;;;;;;5073062;28;20262;-57
2024/03/02 05:31:45;;;;;;;;;;;;;;;;;;5071345;28;19924;-56
2024/03/02 05:34:10;;;;;;;;;;;;;;;;;;5070309;28;19938;-56
2024/03/02 05:36:35;;;;;;;;;;;;;;;;;;5078602;28;19919;-56
2024/03/02 05:39:01;;;;;;;;;;;;;;;;;;5069666;28;19916;-57
2024/03/02 05:41:26;;;;;;;;;;;;;;;;;;5074838;28;19920;-57
2024/03/02 05:43:51;;;;;;;;;;;;;;;;;;5071837;28;19912;-56
2024/03/02 05:46:16;;;;;;;;;;;;;;;;;;5071934;28;19913;-56
2024/03/02 05:48:41;;;;;;;;;;;;;;;;;;5071947;28;19948;-56
2024/03/02 05:51:07;;;;;;;;;;;;;;;;;;5070556;28;19913;-56
2024/03/02 05:53:32;;;;;;;;;;;;;;;;;;5071824;28;19920;-56
2024/03/02 05:55:57;;;;;;;;;;;;;;;;;;5072407;28;19912;-56
2024/03/02 05:58:33;;;;;;;;;;;;;;;;;;5073605;28;19913;-56
2024/03/02 06:00:59;;;;;;;;;;;;;;;;;;5074168;28;19912;-56
2024/03/02 06:03:24;;;;;;;;;;;;;;;;;;5075617;28;19923;-56
2024/03/02 06:05:49;;;;;;;;;;;;;;;;;;5079016;28;20764;-56
2024/03/02 06:08:14;;;;;;;;;;;;;;;;;;5085447;28;20611;-56
2024/03/02 06:10:40;;;;;;;;;;;;;;;;;;5071405;28;20303;-56
2024/03/02 06:13:05;;;;;;;;;;;;;;;;;;5069756;28;19920;-58
2024/03/02 06:15:30;;;;;;;;;;;;;;;;;;5070940;28;19908;-56
2024/03/02 06:17:55;;;;;;;;;;;;;;;;;;5070590;28;19970;-57
2024/03/02 06:20:21;;;;;;;;;;;;;;;;;;5075778;28;20289;-55
2024/03/02 06:22:46;;;;;;;;;;;;;;;;;;5071346;28;19916;-56
2024/03/02 06:25:11;;;;;;;;;;;;;;;;;;5072393;28;20028;-56
2024/03/02 06:27:36;;;;;;;;;;;;;;;;;;5074820;28;20339;-57
2024/03/02 06:30:03;;;;;;;;;;;;;;;;;;5072067;28;19908;-56
2024/03/02 06:32:28;;;;;;;;;;;;;;;;;;5084995;28;20360;-56
2024/03/02 06:34:54;;;;;;;;;;;;;;;;;;5083606;28;19942;-58
2024/03/02 06:37:19;;;;;;;;;;;;;;;;;;5095485;28;19968;-56
2024/03/02 06:39:44;;;;;;;;;;;;;;;;;;5079613;28;20656;-56
2024/03/02 06:42:09;;;;;;;;;;;;;;;;;;5077419;28;19951;-56
2024/03/02 06:44:34;;;;;;;;;;;;;;;;;;5079946;28;19917;-57
2024/03/02 06:46:59;;;;;;;;;;;;;;;;;;5080918;28;19913;-56
2024/03/02 06:49:24;;;;;;;;;;;;;;;;;;5073076;28;19999;-56
2024/03/02 06:51:49;;;;;;;;;;;;;;;;;;5077236;28;19947;-56
2024/03/02 06:54:15;;;;;;;;;;;;;;;;;;5087939;28;19943;-57
2024/03/02 06:56:40;;;;;;;;;;;;;;;;;;5084645;28;19912;-56
2024/03/02 06:59:05;;;;;;;;;;;;;;;;;;5089139;28;19957;-59
2024/03/02 07:01:30;;;;;;;;;;;;;;;;;;5074419;28;19935;-55
2024/03/02 07:03:55;;;;;;;;;;;;;;;;;;5077271;28;19939;-57
2024/03/02 07:06:20;;;;;;;;;;;;;;;;;;5076720;28;20322;-56
2024/03/02 07:08:45;;;;;;;;;;;;;;;;;;5082006;28;19912;-56
2024/03/02 07:11:10;;;;;;;;;;;;;;;;;;5078957;28;19916;-56
2024/03/02 07:13:36;;;;;;;;;;;;;;;;;;5081680;28;19920;-57
2024/03/02 07:18:29;;;;;;;;;;;;;;;;;;5084967;28;20007;-57
2024/03/02 07:20:55;;;;;;;;;;;;;;;;;;5077852;28;20006;-56
2024/03/02 07:23:23;;;;;;;;;;;;;;;;;;5079162;28;19958;-54
2024/03/02 07:25:48;;;;;;;;;;;;;;;;;;5090319;28;19992;-56
2024/03/02 07:28:14;;;;;;;;;;;;;;;;;;5080913;28;19951;-57
2024/03/02 07:30:39;;;;;;;;;;;;;;;;;;5083666;28;19923;-57
2024/03/02 07:33:05;;;;;;;;;;;;;;;;;;5073609;28;19912;-58
2024/03/02 07:35:31;;;;;;;;;;;;;;;;;;5083062;28;19944;-56
2024/03/02 07:37:56;;;;;;;;;;;;;;;;;;5089652;28;19998;-56
2024/03/02 07:40:21;;;;;;;;;;;;;;;;;;5081809;28;20023;-56
2024/03/02 07:42:47;;;;;;;;;;;;;;;;;;5084087;28;20010;-56
2024/03/02 07:45:12;;;;;;;;;;;;;;;;;;5074466;28;19963;-56
2024/03/02 07:47:37;;;;;;;;;;;;;;;;;;5073562;28;20007;-57
2024/03/02 07:50:02;;;;;;;;;;;;;;;;;;5078662;28;19912;-55
2024/03/02 07:52:27;;;;;;;;;;;;;;;;;;5073192;28;19916;-56
2024/03/02 07:54:53;;;;;;;;;;;;;;;;;;5071466;28;19920;-58
2024/03/02 07:57:19;;;;;;;;;;;;;;;;;;5076997;28;19920;-56
2024/03/02 07:59:44;;;;;;;;;;;;;;;;;;5078687;28;19962;-55
2024/03/02 08:02:09;;;;;;;;;;;;;;;;;;5084069;28;19927;-56
2024/03/02 08:04:34;;;;;;;;;;;;;;;;;;5077400;28;19971;-56
2024/03/02 08:06:59;;;;;;;;;;;;;;;;;;5085048;28;19934;-57
2024/03/02 08:09:25;;;;;;;;;;;;;;;;;;5092321;28;19921;-57
2024/03/02 08:11:50;;;;;;;;;;;;;;;;;;5100163;28;20007;-56
2024/03/02 08:14:16;;;;;;;;;;;;;;;;;;5090664;28;19988;-54
2024/03/02 08:16:41;;;;;;;;;;;;;;;;;;5081837;28;20280;-55
2024/03/02 08:19:06;;;;;;;;;;;;;;;;;;5073765;28;20309;-56
2024/03/02 08:21:32;;;;;;;;;;;;;;;;;;5072025;28;20298;-57
2024/03/02 08:23:57;;;;;;;;;;;;;;;;;;5085350;28;19947;-56
2024/03/02 08:26:23;;;;;;;;;;;;;;;;;;5072044;28;19947;-57
2024/03/02 08:28:48;;;;;;;;;;;;;;;;;;5077601;28;20458;-56
2024/03/02 08:31:13;;;;;;;;;;;;;;;;;;5071034;28;19912;-57
2024/03/02 08:33:38;;;;;;;;;;;;;;;;;;5076374;28;19912;-56
2024/03/02 08:36:03;;;;;;;;;;;;;;;;;;5076997;28;19960;-56
2024/03/02 08:38:29;;;;;;;;;;;;;;;;;;5071761;28;19992;-56
2024/03/02 08:40:54;;;;;;;;;;;;;;;;;;5074901;28;19931;-56
2024/03/02 08:43:19;;;;;;;;;;;;;;;;;;5070644;28;19920;-56
2024/03/02 08:45:44;;;;;;;;;;;;;;;;;;5072525;28;19921;-56
2024/03/02 08:48:09;;;;;;;;;;;;;;;;;;5072219;28;19912;-56
2024/03/02 08:50:34;;;;;;;;;;;;;;;;;;5071887;28;19913;-54
2024/03/02 08:52:59;;;;;;;;;;;;;;;;;;5071711;28;19921;-56
2024/03/02 08:55:24;;;;;;;;;;;;;;;;;;5086758;28;19920;-57
2024/03/02 08:57:50;;;;;;;;;;;;;;;;;;5076406;28;19919;-56
2024/03/02 09:00:16;;;;;;;;;;;;;;;;;;5071790;28;19978;-56
2024/03/02 09:02:42;;;;;;;;;;;;;;;;;;5076129;28;19919;-56
2024/03/02 09:05:07;;;;;;;;;;;;;;;;;;5073874;28;19921;-57
2024/03/02 09:07:32;;;;;;;;;;;;;;;;;;5074333;28;19912;-58
2024/03/02 09:09:57;;;;;;;;;;;;;;;;;;5073822;28;19916;-58
2024/03/02 09:12:22;;;;;;;;;;;;;;;;;;5077850;28;19951;-56
2024/03/02 09:14:47;;;;;;;;;;;;;;;;;;5071053;28;19995;-57
2024/03/02 09:17:13;;;;;;;;;;;;;;;;;;5070188;28;19916;-57
2024/03/02 09:19:38;;;;;;;;;;;;;;;;;;5070364;28;19917;-58
2024/03/02 09:22:05;;;;;;;;;;;;;;;;;;5075522;28;20418;-56
2024/03/02 09:24:30;;;;;;;;;;;;;;;;;;5082103;28;19921;-57
2024/03/02 09:26:55;;;;;;;;;;;;;;;;;;5079703;28;19919;-59
2024/03/02 09:29:20;;;;;;;;;;;;;;;;;;5075042;28;19916;-57
2024/03/02 09:31:45;;;;;;;;;;;;;;;;;;5072862;28;19919;-58
2024/03/02 09:34:11;;;;;;;;;;;;;;;;;;5070957;28;19947;-61
2024/03/02 09:36:36;;;;;;;;;;;;;;;;;;5074560;28;19913;-57
2024/03/02 09:39:03;;;;;;;;;;;;;;;;;;5082800;28;19916;-57
2024/03/02 09:41:28;;;;;;;;;;;;;;;;;;5071652;28;19927;-57
2024/03/02 09:43:54;;;;;;;;;;;;;;;;;;5072416;28;19916;-57
2024/03/02 09:46:19;;;;;;;;;;;;;;;;;;5071985;28;19913;-57
2024/03/02 09:48:44;;;;;;;;;;;;;;;;;;5073635;28;20357;-57
2024/03/02 09:51:09;;;;;;;;;;;;;;;;;;5074750;28;20276;-57
2024/03/02 09:53:34;;;;;;;;;;;;;;;;;;5078123;28;20384;-58
2024/03/02 09:55:59;;;;;;;;;;;;;;;;;;5075573;28;20310;-59
2024/03/02 09:58:24;;;;;;;;;;;;;;;;;;5070626;28;19921;-57
2024/03/02 10:00:50;;;;;;;;;;;;;;;;;;5076490;28;19916;-57
2024/03/02 10:03:15;;;;;;;;;;;;;;;;;;5079638;28;19931;-57
2024/03/02 10:05:40;;;;;;;;;;;;;;;;;;5076611;28;19916;-58
2024/03/02 10:08:06;;;;;;;;;;;;;;;;;;5075446;28;20432;-59
2024/03/02 10:10:31;;;;;;;;;;;;;;;;;;5082723;28;19912;-57
2024/03/02 10:12:56;;;;;;;;;;;;;;;;;;5072031;28;19970;-57
2024/03/02 10:15:21;;;;;;;;;;;;;;;;;;5070066;28;19919;-56
2024/03/02 10:17:47;;;;;;;;;;;;;;;;;;5081203;28;19954;-57
2024/03/02 10:20:12;;;;;;;;;;;;;;;;;;5076279;28;19923;-57
2024/03/02 10:22:37;;;;;;;;;;;;;;;;;;5073240;28;19919;-57
2024/03/02 10:25:02;;;;;;;;;;;;;;;;;;5077849;28;19920;-58
2024/03/02 10:27:27;;;;;;;;;;;;;;;;;;5080518;28;19916;-57
2024/03/02 10:29:53;;;;;;;;;;;;;;;;;;5073500;28;19959;-57
2024/03/02 10:32:18;;;;;;;;;;;;;;;;;;5082768;28;20020;-57
2024/03/02 10:34:43;;;;;;;;;;;;;;;;;;5076666;28;19951;-58
2024/03/02 10:37:09;;;;;;;;;;;;;;;;;;5076727;28;20399;-57
2024/03/02 10:39:35;;;;;;;;;;;;;;;;;;5076434;28;19929;-57
2024/03/02 10:42:02;;;;;;;;;;;;;;;;;;5072791;28;19916;-57
2024/03/02 10:44:28;;;;;;;;;;;;;;;;;;5073534;28;19931;-57
2024/03/02 10:46:53;;;;;;;;;;;;;;;;;;5077007;28;20369;-58
2024/03/02 10:49:19;;;;;;;;;;;;;;;;;;5082396;28;20455;-57
2024/03/02 10:51:44;;;;;;;;;;;;;;;;;;5073675;28;19912;-57
2024/03/02 10:54:09;;;;;;;;;;;;;;;;;;5078166;28;19916;-57
2024/03/02 10:56:34;;;;;;;;;;;;;;;;;;5076975;28;19912;-58
2024/03/02 10:58:59;;;;;;;;;;;;;;;;;;5073656;28;20388;-57
2024/03/02 11:01:24;;;;;;;;;;;;;;;;;;5079770;28;20872;-57
2024/03/02 11:03:50;;;;;;;;;;;;;;;;;;5077781;28;19923;-58
2024/03/02 11:06:15;;;;;;;;;;;;;;;;;;5079163;28;19917;-57
2024/03/02 11:08:40;;;;;;;;;;;;;;;;;;5084623;28;19913;-58
2024/03/02 11:11:05;;;;;;;;;;;;;;;;;;5077174;28;20541;-63
2024/03/02 11:13:30;;;;;;;;;;;;;;;;;;5078122;28;19916;-63
2024/03/02 11:15:55;;;;;;;;;;;;;;;;;;5080781;28;20004;-62
2024/03/02 11:18:20;;;;;;;;;;;;;;;;;;5073780;28;19932;-63
2024/03/02 11:20:46;;;;;;;;;;;;;;;;;;5077133;28;19912;-62
2024/03/02 11:23:11;;;;;;;;;;;;;;;;;;5076764;28;19939;-63
2024/03/02 11:25:37;;;;;;;;;;;;;;;;;;5074075;28;19920;-63
2024/03/02 11:28:02;;;;;;;;;;;;;;;;;;5077825;28;19916;-63
2024/03/02 11:30:27;;;;;;;;;;;;;;;;;;5076905;28;19928;-63
2024/03/02 11:32:52;;;;;;;;;;;;;;;;;;5076946;28;20289;-63
2024/03/02 11:35:18;;;;;;;;;;;;;;;;;;5072380;28;19913;-63
2024/03/02 11:37:43;;;;;;;;;;;;;;;;;;5076185;28;19913;-63
2024/03/02 11:40:08;;;;;;;;;;;;;;;;;;5072466;28;19921;-63
2024/03/02 11:42:33;;;;;;;;;;;;;;;;;;5077095;28;20471;-62
2024/03/02 11:44:58;;;;;;;;;;;;;;;;;;5076350;28;19920;-62
2024/03/02 11:47:23;;;;;;;;;;;;;;;;;;5071476;28;19916;-63
2024/03/02 11:49:48;;;;;;;;;;;;;;;;;;5073167;28;19916;-64
2024/03/02 11:52:14;;;;;;;;;;;;;;;;;;5073027;28;19912;-63
2024/03/02 11:54:40;;;;;;;;;;;;;;;;;;5073419;28;20412;-63
2024/03/02 11:57:05;;;;;;;;;;;;;;;;;;5073254;28;19917;-65
2024/03/02 11:59:30;;;;;;;;;;;;;;;;;;5076231;28;19913;-63
2024/03/02 12:01:55;;;;;;;;;;;;;;;;;;5080023;28;20274;-63
2024/03/02 12:04:20;;;;;;;;;;;;;;;;;;5076416;28;19916;-63
2024/03/02 12:06:46;;;;;;;;;;;;;;;;;;5071511;28;20660;-61
2024/03/02 12:09:12;;;;;;;;;;;;;;;;;;5072822;28;20353;-62
2024/03/02 12:11:37;;;;;;;;;;;;;;;;;;5073394;28;20377;-64
2024/03/02 12:14:02;;;;;;;;;;;;;;;;;;5070074;28;19916;-63
2024/03/02 12:16:27;;;;;;;;;;;;;;;;;;5071438;28;20011;-63
2024/03/02 12:18:52;;;;;;;;;;;;;;;;;;5077135;28;19912;-62
2024/03/02 12:21:18;;;;;;;;;;;;;;;;;;5071923;28;19923;-63
2024/03/02 12:23:43;;;;;;;;;;;;;;;;;;5072708;28;20261;-61
2024/03/02 12:26:08;;;;;;;;;;;;;;;;;;5074993;28;20361;-63
2024/03/02 12:28:33;;;;;;;;;;;;;;;;;;5075900;28;20361;-63
2024/03/02 12:30:58;;;;;;;;;;;;;;;;;;5071278;28;20353;-63
2024/03/02 12:33:24;;;;;;;;;;;;;;;;;;5073839;28;20332;-63
2024/03/02 12:35:49;;;;;;;;;;;;;;;;;;5076998;28;19913;-66
2024/03/02 12:38:14;;;;;;;;;;;;;;;;;;5071533;28;19975;-63
2024/03/02 12:40:39;;;;;;;;;;;;;;;;;;5080837;28;19934;-63
2024/03/02 12:43:04;;;;;;;;;;;;;;;;;;5078337;28;20305;-62
2024/03/02 12:45:29;;;;;;;;;;;;;;;;;;5077225;28;19916;-63
2024/03/02 12:47:54;;;;;;;;;;;;;;;;;;5073310;28;19913;-63
2024/03/02 12:50:19;;;;;;;;;;;;;;;;;;5071628;28;19912;-64
2024/03/02 12:52:45;;;;;;;;;;;;;;;;;;5080082;28;20404;-63
2024/03/02 12:55:10;;;;;;;;;;;;;;;;;;5073314;28;19912;-62
2024/03/02 12:57:35;;;;;;;;;;;;;;;;;;5072609;28;19916;-61
2024/03/02 13:00:00;;;;;;;;;;;;;;;;;;5075945;28;19992;-64
2024/03/02 13:02:26;;;;;;;;;;;;;;;;;;5071907;28;19920;-60
2024/03/02 13:04:51;;;;;;;;;;;;;;;;;;5070697;28;19939;-64
2024/03/02 13:07:16;;;;;;;;;;;;;;;;;;5073950;28;19998;-64
2024/03/02 13:09:41;;;;;;;;;;;;;;;;;;5071394;28;19966;-63
2024/03/02 13:12:06;;;;;;;;;;;;;;;;;;5073180;28;19981;-63
2024/03/02 13:14:31;;;;;;;;;;;;;;;;;;5070212;28;19940;-64
2024/03/02 13:16:57;;;;;;;;;;;;;;;;;;5074960;28;20003;-64
2024/03/02 13:19:22;;;;;;;;;;;;;;;;;;5074462;28;19913;-63
2024/03/02 13:21:47;;;;;;;;;;;;;;;;;;5073073;28;19958;-63
2024/03/02 13:24:12;;;;;;;;;;;;;;;;;;5078075;28;19922;-63
2024/03/02 13:26:37;;;;;;;;;;;;;;;;;;5076312;28;20401;-64
2024/03/02 13:29:02;;;;;;;;;;;;;;;;;;5074286;28;20384;-58
2024/03/02 13:31:27;;;;;;;;;;;;;;;;;;5071158;28;19923;-58
2024/03/02 13:33:52;;;;;;;;;;;;;;;;;;5072362;28;19931;-58
2024/03/02 13:36:19;;;;;;;;;;;;;;;;;;5069603;28;19913;-57
2024/03/02 13:38:44;;;;;;;;;;;;;;;;;;5076186;28;19912;-58
2024/03/02 13:41:10;;;;;;;;;;;;;;;;;;5071415;28;19935;-58
2024/03/02 13:43:37;;;;;;;;;;;;;;;;;;5070495;28;19919;-58
2024/03/02 13:46:02;;;;;;;;;;;;;;;;;;5074898;28;19916;-58
2024/03/02 13:48:28;;;;;;;;;;;;;;;;;;5070739;28;19917;-58
2024/03/02 13:50:53;;;;;;;;;;;;;;;;;;5072068;28;20369;-58
2024/03/02 13:53:18;;;;;;;;;;;;;;;;;;5077955;28;19928;-58
2024/03/02 13:55:43;;;;;;;;;;;;;;;;;;5076000;28;19919;-59
2024/03/02 13:58:08;;;;;;;;;;;;;;;;;;5075817;28;20266;-57
2024/03/02 14:00:33;;;;;;;;;;;;;;;;;;5075934;28;19913;-57
2024/03/02 14:02:59;;;;;;;;;;;;;;;;;;5078529;28;19916;-58
2024/03/02 14:05:24;;;;;;;;;;;;;;;;;;5077262;28;19924;-58
2024/03/02 14:07:49;;;;;;;;;;;;;;;;;;5073896;28;20280;-57
2024/03/02 14:10:15;;;;;;;;;;;;;;;;;;5090572;28;19958;-57
2024/03/02 14:12:40;;;;;;;;;;;;;;;;;;5075024;28;19919;-58
2024/03/02 14:15:05;;;;;;;;;;;;;;;;;;5083017;28;19920;-57
2024/03/02 14:17:33;;;;;;;;;;;;;;;;;;5073792;28;19912;-57
2024/03/02 14:19:58;;;;;;;;;;;;;;;;;;5074788;28;19947;-57
2024/03/02 14:22:24;;;;;;;;;;;;;;;;;;5083755;28;19944;-58
2024/03/02 14:24:49;;;;;;;;;;;;;;;;;;5074406;28;19943;-58
2024/03/02 14:27:14;;;;;;;;;;;;;;;;;;5074568;28;20340;-58
2024/03/02 14:29:40;;;;;;;;;;;;;;;;;;5073221;28;20352;-59
2024/03/02 14:32:05;;;;;;;;;;;;;;;;;;5075576;28;19923;-59
2024/03/02 14:34:30;;;;;;;;;;;;;;;;;;5084875;28;19918;-58
2024/03/02 14:36:55;;;;;;;;;;;;;;;;;;5087435;28;19999;-59
2024/03/02 14:39:20;;;;;;;;;;;;;;;;;;5087933;28;19927;-58
2024/03/02 14:41:45;;;;;;;;;;;;;;;;;;5094245;28;19928;-58
2024/03/02 14:44:10;;;;;;;;;;;;;;;;;;5086322;28;19912;-58
2024/03/02 14:46:35;;;;;;;;;;;;;;;;;;5087479;28;19912;-58
2024/03/02 14:49:01;;;;;;;;;;;;;;;;;;5088585;28;20288;-59
2024/03/02 14:51:26;;;;;;;;;;;;;;;;;;5090642;28;19985;-59
2024/03/02 14:53:51;;;;;;;;;;;;;;;;;;5089666;28;19970;-57
2024/03/02 14:56:16;;;;;;;;;;;;;;;;;;5083533;28;19913;-59
2024/03/02 14:58:41;;;;;;;;;;;;;;;;;;5087950;28;19912;-60
2024/03/02 15:01:08;;;;;;;;;;;;;;;;;;5085503;28;20281;-58
2024/03/02 15:03:33;;;;;;;;;;;;;;;;;;5085400;28;19961;-60
2024/03/02 15:05:58;;;;;;;;;;;;;;;;;;5087633;28;19929;-58
2024/03/02 15:08:23;;;;;;;;;;;;;;;;;;5076752;28;19912;-57
2024/03/02 15:10:49;;;;;;;;;;;;;;;;;;5078609;28;19912;-62
2024/03/02 15:13:14;;;;;;;;;;;;;;;;;;5074094;28;19912;-58
2024/03/02 15:15:39;;;;;;;;;;;;;;;;;;5073493;28;19919;-59
2024/03/02 15:18:04;;;;;;;;;;;;;;;;;;5082200;28;20429;-59
2024/03/02 15:20:29;;;;;;;;;;;;;;;;;;5088344;28;19908;-58
2024/03/02 15:22:54;;;;;;;;;;;;;;;;;;5085766;28;19931;-59
2024/03/02 15:25:19;;;;;;;;;;;;;;;;;;5075362;28;19916;-58
2024/03/02 15:27:45;;;;;;;;;;;;;;;;;;5077009;28;20832;-57
2024/03/02 15:30:10;;;;;;;;;;;;;;;;;;5080622;28;19908;-59
2024/03/02 15:32:36;;;;;;;;;;;;;;;;;;5089096;28;19916;-58
2024/03/02 15:35:01;;;;;;;;;;;;;;;;;;5073502;28;19969;-58
2024/03/02 15:37:26;;;;;;;;;;;;;;;;;;5073207;28;19908;-58
2024/03/02 15:39:52;;;;;;;;;;;;;;;;;;5081678;28;20029;-58
2024/03/02 15:42:17;;;;;;;;;;;;;;;;;;5078134;28;19916;-59
2024/03/02 15:44:42;;;;;;;;;;;;;;;;;;5074824;28;19920;-58
2024/03/02 15:47:08;;;;;;;;;;;;;;;;;;5075850;28;19957;-58
2024/03/02 15:49:33;;;;;;;;;;;;;;;;;;5072632;28;19958;-64
2024/03/02 15:52:00;;;;;;;;;;;;;;;;;;5083357;28;19981;-65
2024/03/02 15:54:25;;;;;;;;;;;;;;;;;;5081915;28;23593;-64
2024/03/02 15:56:50;;;;;;;;;;;;;;;;;;5074493;28;19993;-64
2024/03/02 15:59:15;;;;;;;;;;;;;;;;;;5078470;28;19912;-62
2024/03/02 16:01:41;;;;;;;;;;;;;;;;;;5077811;28;19946;-64
2024/03/02 16:04:07;;;;;;;;;;;;;;;;;;5091427;28;20379;-64
2024/03/02 16:06:32;;;;;;;;;;;;;;;;;;5084869;28;20344;-64
2024/03/02 16:08:59;;;;;;;;;;;;;;;;;;5081563;28;20246;-65
2024/03/02 16:11:24;;;;;;;;;;;;;;;;;;5075357;28;19916;-64
2024/03/02 16:13:51;;;;;;;;;;;;;;;;;;5073349;28;19919;-64
2024/03/02 16:16:16;;;;;;;;;;;;;;;;;;5081203;28;19965;-64
2024/03/02 16:18:41;;;;;;;;;;;;;;;;;;5075050;28;19917;-64
2024/03/02 16:21:07;;;;;;;;;;;;;;;;;;5074197;28;19943;-64
2024/03/02 16:23:32;;;;;;;;;;;;;;;;;;5071411;28;19917;-64
2024/03/02 16:25:57;;;;;;;;;;;;;;;;;;5077072;28;20284;-63
2024/03/02 16:28:22;;;;;;;;;;;;;;;;;;5085900;28;20322;-64
2024/03/02 16:30:47;;;;;;;;;;;;;;;;;;5086004;28;20048;-64
2024/03/02 16:33:12;;;;;;;;;;;;;;;;;;5082915;28;20372;-64
2024/03/02 16:35:37;;;;;;;;;;;;;;;;;;5087380;28;19924;-65
2024/03/02 16:38:03;;;;;;;;;;;;;;;;;;5079300;28;19936;-65
2024/03/02 16:40:29;;;;;;;;;;;;;;;;;;5074959;28;19924;-65